createdAt,value
2023-11-27T00:00:42.469Z,98217.50
2023-11-27T00:03:44.629Z,98202.84
2023-11-27T00:06:46.442Z,98196.03
2023-11-27T00:09:48.227Z,98185.38
2023-11-27T00:12:49.997Z,98175.72
2023-11-27T00:15:51.769Z,98162.84
2023-11-27T00:18:54.106Z,98159.34
2023-11-27T00:21:55.934Z,98148.44
2023-11-27T00:24:57.729Z,98144.22
2023-11-27T00:27:59.433Z,98134.16
2023-11-27T00:31:01.219Z,98131.44
2023-11-27T00:34:03.043Z,98126.19
2023-11-27T00:37:04.863Z,98108.19
2023-11-27T00:40:07.275Z,98115.03
2023-11-27T00:43:09.070Z,98109.88
2023-11-27T00:46:11.341Z,98102.22
2023-11-27T00:49:13.308Z,98098.78
2023-11-27T00:52:15.296Z,98092.78
2023-11-27T00:55:17.030Z,98086.53
2023-11-27T00:58:18.812Z,98086.59
2023-11-27T01:01:20.687Z,98076.28
2023-11-27T01:04:22.840Z,98075.38
2023-11-27T01:07:24.604Z,98071.13
2023-11-27T01:10:26.300Z,98082.41
2023-11-27T01:13:28.067Z,98067.00
2023-11-27T01:16:30.458Z,98060.75
2023-11-27T01:19:32.208Z,98064.28
2023-11-27T01:22:33.842Z,98057.41
2023-11-27T01:25:35.530Z,98061.78
2023-11-27T01:28:37.559Z,98065.91
2023-11-27T01:31:41.411Z,98058.19
2023-11-27T01:34:43.039Z,98051.28
2023-11-27T01:37:44.664Z,98046.91
2023-11-27T01:40:47.152Z,98045.13
2023-11-27T01:43:48.807Z,98044.25
2023-11-27T01:46:50.442Z,98044.09
2023-11-27T01:49:52.129Z,98033.97
2023-11-27T01:52:53.732Z,98019.97
2023-11-27T01:55:55.408Z,98027.78
2023-11-27T01:58:58.231Z,98020.06
2023-11-27T02:02:00.401Z,98015.66
2023-11-27T02:05:02.185Z,98018.34
2023-11-27T02:08:04.193Z,98021.41
2023-11-27T02:11:06.022Z,98024.88
2023-11-27T02:14:07.685Z,98017.31
2023-11-27T02:17:09.385Z,98010.59
2023-11-27T02:20:11.775Z,97998.97
2023-11-27T02:23:17.453Z,98003.19
2023-11-27T02:26:19.065Z,98002.53
2023-11-27T02:29:20.675Z,97996.53
2023-11-27T02:32:22.722Z,97980.28
2023-11-27T02:35:24.380Z,97980.84
2023-11-27T02:38:26.051Z,97974.00
2023-11-27T02:41:28.059Z,97974.88
2023-11-27T02:44:29.745Z,97967.34
2023-11-27T02:47:31.396Z,97970.75
2023-11-27T02:50:33.154Z,97975.81
2023-11-27T02:53:34.865Z,97958.50
2023-11-27T02:56:36.910Z,97969.59
2023-11-27T02:59:38.535Z,97960.09
2023-11-27T03:02:40.536Z,97960.91
2023-11-27T03:05:42.225Z,97945.38
2023-11-27T03:08:43.928Z,97942.03
2023-11-27T03:11:45.519Z,97938.50
2023-11-27T03:14:47.148Z,97932.31
2023-11-27T03:17:48.889Z,97929.75
2023-11-27T03:20:50.539Z,97925.97
2023-11-27T03:23:52.145Z,97926.81
2023-11-27T03:26:53.733Z,97905.47
2023-11-27T03:29:55.371Z,97907.97
2023-11-27T03:32:57.067Z,97901.00
2023-11-27T03:35:58.905Z,97896.38
2023-11-27T03:39:00.599Z,97898.19
2023-11-27T03:42:02.200Z,97894.72
2023-11-27T03:45:04.017Z,97892.94
2023-11-27T03:48:08.379Z,97885.97
2023-11-27T03:51:10.140Z,97892.13
2023-11-27T03:54:14.638Z,97891.13
2023-11-27T03:57:16.688Z,97887.50
2023-11-27T04:00:18.647Z,97885.09
2023-11-27T04:03:20.725Z,97881.03
2023-11-27T04:06:23.579Z,97875.94
2023-11-27T04:09:25.165Z,97881.03
2023-11-27T04:12:26.758Z,97875.94
2023-11-27T04:15:30.331Z,97873.22
2023-11-27T04:18:31.973Z,97871.47
2023-11-27T04:21:33.607Z,97862.72
2023-11-27T04:24:35.267Z,97854.09
2023-11-27T04:27:36.975Z,97858.56
2023-11-27T04:30:39.001Z,97859.03
2023-11-27T04:33:40.669Z,97855.03
2023-11-27T04:36:42.505Z,97850.84
2023-11-27T04:39:44.104Z,97856.16
2023-11-27T04:42:45.817Z,97846.59
2023-11-27T04:45:47.455Z,97850.91
2023-11-27T04:48:49.363Z,97844.16
2023-11-27T04:51:51.132Z,97842.59
2023-11-27T04:54:52.878Z,97838.31
2023-11-27T04:57:54.535Z,97828.78
2023-11-27T05:00:56.219Z,97829.47
2023-11-27T05:03:58.733Z,97825.25
2023-11-27T05:07:01.550Z,97822.03
2023-11-27T05:10:03.809Z,97817.50
2023-11-27T05:13:05.981Z,97816.50
2023-11-27T05:16:08.345Z,97803.09
2023-11-27T05:19:10.133Z,97797.94
2023-11-27T05:22:11.901Z,97802.31
2023-11-27T05:25:14.190Z,97791.94
2023-11-27T05:28:15.978Z,97784.13
2023-11-27T05:31:18.573Z,97773.94
2023-11-27T05:34:21.576Z,97786.00
2023-11-27T05:37:23.325Z,97783.34
2023-11-27T05:40:25.017Z,97779.81
2023-11-27T05:43:26.872Z,97773.25
2023-11-27T05:46:28.920Z,97773.25
2023-11-27T05:49:33.526Z,97764.75
2023-11-27T05:52:35.372Z,97764.41
2023-11-27T05:55:37.691Z,97763.00
2023-11-27T05:58:39.337Z,97758.81
2023-11-27T06:01:41.029Z,97756.75
2023-11-27T06:04:44.569Z,97753.63
2023-11-27T06:07:46.836Z,97745.94
2023-11-27T06:10:48.979Z,97748.66
2023-11-27T06:13:50.625Z,97748.75
2023-11-27T06:16:52.309Z,97743.66
2023-11-27T06:19:53.965Z,97744.63
2023-11-27T06:22:58.422Z,97741.31
2023-11-27T06:26:00.865Z,97742.09
2023-11-27T06:29:03.532Z,97734.31
2023-11-27T06:32:05.143Z,97737.97
2023-11-27T06:35:07.249Z,97738.59
2023-11-27T06:38:08.928Z,97735.38
2023-11-27T06:41:11.939Z,97730.88
2023-11-27T06:44:19.061Z,97731.72
2023-11-27T06:47:20.698Z,97726.66
2023-11-27T06:50:22.332Z,97727.59
2023-11-27T06:53:25.510Z,97722.38
2023-11-27T06:56:30.580Z,97716.44
2023-11-27T06:59:32.188Z,97714.06
2023-11-27T07:02:34.444Z,97702.88
2023-11-27T07:05:36.124Z,97705.41
2023-11-27T07:08:38.557Z,97698.63
2023-11-27T07:11:40.227Z,97701.25
2023-11-27T07:14:41.961Z,97693.41
2023-11-27T07:17:45.899Z,97691.69
2023-11-27T07:20:47.765Z,97685.75
2023-11-27T07:23:51.029Z,97679.06
2023-11-27T07:26:52.668Z,97674.78
2023-11-27T07:29:54.311Z,97678.28
2023-11-27T07:32:57.432Z,97679.31
2023-11-27T07:35:59.119Z,97672.50
2023-11-27T07:39:00.791Z,97674.22
2023-11-27T07:42:02.651Z,97667.41
2023-11-27T07:45:06.179Z,97667.47
2023-11-27T07:48:07.930Z,97657.13
2023-11-27T07:51:09.900Z,97659.81
2023-11-27T07:54:11.814Z,97658.03
2023-11-27T07:57:13.626Z,97655.50
2023-11-27T08:00:17.575Z,97660.53
2023-11-27T08:03:19.259Z,97649.56
2023-11-27T08:06:21.154Z,97651.38
2023-11-27T08:09:23.101Z,97648.94
2023-11-27T08:12:24.688Z,97645.63
2023-11-27T08:15:26.644Z,97637.84
2023-11-27T08:18:28.597Z,97644.81
2023-11-27T08:21:30.251Z,97650.97
2023-11-27T08:24:35.316Z,97638.88
2023-11-27T08:27:39.986Z,97629.44
2023-11-27T08:30:43.251Z,97632.97
2023-11-27T08:33:45.042Z,97637.44
2023-11-27T08:36:46.738Z,97626.34
2023-11-27T08:39:48.348Z,97640.25
2023-11-27T08:42:49.998Z,97647.28
2023-11-27T08:45:51.653Z,97653.34
2023-11-27T08:48:53.357Z,97648.16
2023-11-27T08:51:55.687Z,97644.00
2023-11-27T08:54:59.044Z,97645.75
2023-11-27T08:58:04.410Z,97629.47
2023-11-27T09:01:06.884Z,97651.13
2023-11-27T09:04:10.282Z,97646.03
2023-11-27T09:07:13.267Z,97654.75
2023-11-27T09:10:14.910Z,97651.41
2023-11-27T09:13:16.537Z,97654.06
2023-11-27T09:16:18.244Z,97641.13
2023-11-27T09:19:19.937Z,97640.31
2023-11-27T09:22:22.786Z,97649.72
2023-11-27T09:25:25.557Z,97637.78
2023-11-27T09:28:28.440Z,97635.22
2023-11-27T09:31:30.375Z,97636.03
2023-11-27T09:34:32.458Z,97637.75
2023-11-27T09:37:36.663Z,97641.22
2023-11-27T09:40:41.497Z,97636.06
2023-11-27T09:43:43.223Z,97636.97
2023-11-27T09:46:45.948Z,97642.16
2023-11-27T09:49:49.024Z,97632.66
2023-11-27T09:53:03.543Z,97627.47
2023-11-27T09:56:07.416Z,97632.59
2023-11-27T09:59:09.418Z,97611.94
2023-11-27T10:02:11.877Z,97609.28
2023-11-27T10:05:13.458Z,97604.19
2023-11-27T10:08:15.116Z,97600.72
2023-11-27T10:11:18.014Z,97603.31
2023-11-27T10:17:25.680Z,97585.16
2023-11-27T10:20:27.595Z,97567.06
2023-11-27T10:23:29.223Z,97568.78
2023-11-27T10:26:31.996Z,97573.97
2023-11-27T10:29:34.710Z,97558.44
2023-11-27T10:32:36.625Z,97554.13
2023-11-27T10:35:38.336Z,97546.34
2023-11-27T10:38:40.038Z,97547.22
2023-11-27T10:41:46.068Z,97524.78
2023-11-27T10:44:49.801Z,97522.19
2023-11-27T10:47:53.086Z,97514.44
2023-11-27T10:50:54.717Z,97504.91
2023-11-27T10:53:56.505Z,97498.00
2023-11-27T10:56:58.259Z,97508.38
2023-11-27T10:59:59.879Z,97493.72
2023-11-27T11:03:04.376Z,97489.41
2023-11-27T11:06:08.259Z,97485.09
2023-11-27T11:09:13.395Z,97469.56
2023-11-27T11:12:24.683Z,97448.00
2023-11-27T11:15:41.540Z,97450.59
2023-11-27T11:19:01.902Z,97428.16
2023-11-27T11:22:11.871Z,97435.91
2023-11-27T11:25:22.641Z,97416.06
2023-11-27T11:28:30.806Z,97399.72
2023-11-27T11:31:39.787Z,97393.69
2023-11-27T11:34:48.156Z,97393.69
2023-11-27T11:37:51.161Z,97376.47
2023-11-27T11:40:53.218Z,97379.88
2023-11-27T11:43:57.139Z,97374.69
2023-11-27T11:46:58.907Z,97358.28
2023-11-27T11:50:25.783Z,97366.88
2023-11-27T11:53:31.364Z,97352.19
2023-11-27T11:56:36.027Z,97338.41
2023-11-27T11:59:40.680Z,97330.69
2023-11-27T12:02:42.772Z,97322.91
2023-11-27T12:05:54.969Z,97324.63
2023-11-27T12:08:59.892Z,97306.56
2023-11-27T12:12:01.867Z,97297.88
2023-11-27T12:15:10.518Z,97297.06
2023-11-27T12:18:14.535Z,97279.00
2023-11-27T12:21:18.625Z,97269.53
2023-11-27T12:24:20.694Z,97265.19
2023-11-27T12:27:23.924Z,97257.50
2023-11-27T12:30:25.693Z,97254.94
2023-11-27T12:33:28.842Z,97242.00
2023-11-27T12:36:31.940Z,97242.03
2023-11-27T12:39:34.202Z,97242.00
2023-11-27T12:42:37.376Z,97223.00
2023-11-27T12:45:39.129Z,97210.94
2023-11-27T12:48:46.778Z,97203.19
2023-11-27T12:51:57.038Z,97196.31
2023-11-27T12:54:58.996Z,97184.25
2023-11-27T12:58:00.825Z,97177.34
2023-11-27T13:01:02.896Z,97178.25
2023-11-27T13:04:05.782Z,97153.31
2023-11-27T13:07:10.965Z,97147.28
2023-11-27T13:10:13.269Z,97131.81
2023-11-27T13:13:22.612Z,97106.03
2023-11-27T13:16:24.477Z,97095.66
2023-11-27T13:19:26.409Z,97098.28
2023-11-27T13:22:33.718Z,97087.97
2023-11-27T13:25:38.793Z,97081.94
2023-11-27T13:28:44.122Z,97075.94
2023-11-27T13:31:45.973Z,97085.41
2023-11-27T13:34:58.554Z,97072.50
2023-11-27T13:38:01.886Z,97069.06
2023-11-27T13:41:03.564Z,97046.72
2023-11-27T13:44:09.177Z,97052.75
2023-11-27T13:47:18.455Z,97045.00
2023-11-27T13:50:20.963Z,97032.09
2023-11-27T13:53:25.756Z,97025.19
2023-11-27T13:56:31.500Z,97030.34
2023-11-27T13:59:41.598Z,97020.06
2023-11-27T14:02:43.412Z,97011.47
2023-11-27T14:05:49.447Z,97008.88
2023-11-27T14:09:04.425Z,97008.00
2023-11-27T14:12:11.296Z,96994.28
2023-11-27T14:15:22.913Z,96995.13
2023-11-27T14:18:24.581Z,96978.78
2023-11-27T14:21:52.490Z,96962.47
2023-11-27T14:24:54.157Z,96976.19
2023-11-27T14:28:18.515Z,96971.91
2023-11-27T14:31:23.534Z,96963.31
2023-11-27T14:34:28.973Z,96943.56
2023-11-27T14:37:33.910Z,96946.13
2023-11-27T14:40:36.112Z,96935.81
2023-11-27T14:43:37.968Z,96934.09
2023-11-27T14:46:40.157Z,96929.78
2023-11-27T14:49:44.285Z,96908.31
2023-11-27T14:52:46.261Z,96933.22
2023-11-27T14:55:47.945Z,96914.28
2023-11-27T14:58:49.924Z,96891.97
2023-11-27T15:01:51.999Z,96891.13
2023-11-27T15:04:53.876Z,96880.84
2023-11-27T15:07:59.733Z,96877.41
2023-11-27T15:11:03.218Z,96872.25
2023-11-27T15:14:05.312Z,96871.38
2023-11-27T15:17:09.104Z,96862.78
2023-11-27T15:20:14.255Z,96862.78
2023-11-27T15:23:15.906Z,96865.38
2023-11-27T15:26:17.941Z,96858.50
2023-11-27T15:29:19.984Z,96852.50
2023-11-27T15:32:21.596Z,96836.22
2023-11-27T15:35:26.193Z,96827.63
2023-11-27T15:38:27.889Z,96824.19
2023-11-27T15:41:30.299Z,96816.47
2023-11-27T15:44:32.664Z,96801.91
2023-11-27T15:47:34.564Z,96793.28
2023-11-27T15:50:37.867Z,96795.88
2023-11-27T15:53:39.628Z,96794.16
2023-11-27T15:56:41.752Z,96786.41
2023-11-27T15:59:44.539Z,96778.69
2023-11-27T16:02:46.856Z,96771.81
2023-11-27T16:05:48.622Z,96764.09
2023-11-27T16:08:50.290Z,96750.38
2023-11-27T16:11:52.456Z,96758.94
2023-11-27T16:14:54.227Z,96753.78
2023-11-27T16:18:00.874Z,96751.22
2023-11-27T16:21:03.603Z,96734.91
2023-11-27T16:24:07.013Z,96732.28
2023-11-27T16:27:08.874Z,96732.31
2023-11-27T16:30:11.066Z,96713.41
2023-11-27T16:33:12.985Z,96719.41
2023-11-27T16:36:14.898Z,96703.06
2023-11-27T16:39:18.767Z,96704.78
2023-11-27T16:42:20.494Z,96694.47
2023-11-27T16:45:24.152Z,96699.66
2023-11-27T16:48:29.441Z,96706.53
2023-11-27T16:51:35.111Z,96699.69
2023-11-27T16:54:37.428Z,96704.78
2023-11-27T16:57:40.071Z,96685.94
2023-11-27T17:00:41.665Z,96679.91
2023-11-27T17:03:44.300Z,96687.63
2023-11-27T17:06:47.390Z,96683.31
2023-11-27T17:09:50.359Z,96677.31
2023-11-27T17:12:52.015Z,96672.19
2023-11-27T17:15:54.048Z,96662.69
2023-11-27T17:18:57.121Z,96661.00
2023-11-27T17:21:58.906Z,96654.09
2023-11-27T17:25:01.135Z,96645.59
2023-11-27T17:28:02.825Z,96657.63
2023-11-27T17:31:05.043Z,96646.47
2023-11-27T17:34:07.295Z,96658.47
2023-11-27T17:37:09.153Z,96643.91
2023-11-27T17:40:15.056Z,96631.84
2023-11-27T17:43:18.592Z,96631.84
2023-11-27T17:46:21.092Z,96637.81
2023-11-27T17:49:22.946Z,96627.56
2023-11-27T17:52:24.890Z,96618.97
2023-11-27T17:55:39.012Z,96612.94
2023-11-27T17:58:47.064Z,96622.41
2023-11-27T18:01:49.391Z,96599.22
2023-11-27T18:04:51.141Z,96585.47
2023-11-27T18:07:53.623Z,96592.28
2023-11-27T18:10:55.356Z,96584.59
2023-11-27T18:13:57.578Z,96577.66
2023-11-27T18:17:00.744Z,96571.66
2023-11-27T18:20:05.495Z,96571.75
2023-11-27T18:23:09.680Z,96575.16
2023-11-27T18:26:12.786Z,96566.53
2023-11-27T18:29:14.666Z,96548.56
2023-11-27T18:32:19.359Z,96555.38
2023-11-27T18:35:21.209Z,96545.94
2023-11-27T18:38:23.443Z,96545.06
2023-11-27T18:41:29.202Z,96536.50
2023-11-27T18:44:30.869Z,96533.03
2023-11-27T18:47:32.775Z,96525.31
2023-11-27T18:50:34.829Z,96524.56
2023-11-27T18:53:36.461Z,96512.47
2023-11-27T18:56:38.671Z,96516.75
2023-11-27T18:59:40.580Z,96514.28
2023-11-27T19:02:43.329Z,96512.44
2023-11-27T19:05:47.097Z,96493.59
2023-11-27T19:08:51.455Z,96492.78
2023-11-27T19:11:53.095Z,96492.75
2023-11-27T19:14:55.135Z,96491.88
2023-11-27T19:17:57.168Z,96485.06
2023-11-27T19:20:59.105Z,96474.81
2023-11-27T19:24:00.900Z,96473.91
2023-11-27T19:27:04.960Z,96461.81
2023-11-27T19:30:09.467Z,96471.28
2023-11-27T19:33:14.795Z,96454.19
2023-11-27T19:36:26.397Z,96459.31
2023-11-27T19:39:30.832Z,96451.59
2023-11-27T19:42:32.600Z,96450.72
2023-11-27T19:45:39.975Z,96449.88
2023-11-27T19:48:44.224Z,96445.63
2023-11-27T19:51:47.107Z,96444.72
2023-11-27T19:54:49.025Z,96429.31
2023-11-27T19:57:52.444Z,96437.94
2023-11-27T20:00:54.142Z,96417.34
2023-11-27T20:03:56.171Z,96424.16
2023-11-27T20:06:57.936Z,96415.53
2023-11-27T20:09:59.628Z,96418.06
2023-11-27T20:13:01.327Z,96412.97
2023-11-27T20:16:04.698Z,96412.03
2023-11-27T20:19:07.820Z,96411.16
2023-11-27T20:22:12.671Z,96404.25
2023-11-27T20:25:14.458Z,96406.91
2023-11-27T20:28:16.173Z,96400.81
2023-11-27T20:31:29.684Z,96412.94
2023-11-27T20:34:38.284Z,96400.94
2023-11-27T20:37:41.338Z,96411.13
2023-11-27T20:40:43.070Z,96404.28
2023-11-27T20:43:44.726Z,96402.56
2023-11-27T20:46:46.989Z,96404.25
2023-11-27T20:49:50.117Z,96406.84
2023-11-27T20:52:52.876Z,96396.66
2023-11-27T20:55:56.659Z,96395.03
2023-11-27T20:58:59.219Z,96397.59
2023-11-27T21:02:05.457Z,96390.75
2023-11-27T21:05:11.312Z,96383.84
2023-11-27T21:08:13.403Z,96382.03
2023-11-27T21:11:15.068Z,96375.19
2023-11-27T21:14:18.669Z,96381.97
2023-11-27T21:17:24.232Z,96387.09
2023-11-27T21:20:26.655Z,96382.75
2023-11-27T21:23:28.744Z,96381.03
2023-11-27T21:26:30.649Z,96378.47
2023-11-27T21:29:33.293Z,96373.34
2023-11-27T21:32:35.022Z,96371.63
2023-11-27T21:35:36.708Z,96367.34
2023-11-27T21:38:38.446Z,96368.22
2023-11-27T21:41:40.160Z,96364.72
2023-11-27T21:44:42.184Z,96365.59
2023-11-27T21:47:45.256Z,96364.69
2023-11-27T21:50:47.160Z,96351.88
2023-11-27T21:53:49.640Z,96356.19
2023-11-27T21:56:51.354Z,96345.06
2023-11-27T21:59:54.582Z,96351.06
2023-11-27T22:02:56.410Z,96337.38
2023-11-27T22:06:00.214Z,96338.22
2023-11-27T22:09:02.947Z,96325.28
2023-11-27T22:12:04.553Z,96333.00
2023-11-27T22:15:06.685Z,96321.97
2023-11-27T22:18:08.352Z,96336.44
2023-11-27T22:21:10.083Z,96325.25
2023-11-27T22:24:11.855Z,96321.91
2023-11-27T22:27:13.610Z,96318.41
2023-11-27T22:30:15.373Z,96316.78
2023-11-27T22:33:16.994Z,96310.59
2023-11-27T22:36:19.167Z,96314.84
2023-11-27T22:39:20.815Z,96306.38
2023-11-27T22:42:22.407Z,96305.56
2023-11-27T22:45:24.098Z,96303.94
2023-11-27T22:48:30.626Z,96298.75
2023-11-27T22:51:33.039Z,96298.69
2023-11-27T22:54:34.783Z,96289.19
2023-11-27T22:57:36.465Z,96289.19
2023-11-27T23:00:38.359Z,96291.84
2023-11-27T23:03:40.409Z,96286.66
2023-11-27T23:06:42.103Z,96281.56
2023-11-27T23:09:43.706Z,96282.41
2023-11-27T23:12:45.360Z,96281.47
2023-11-27T23:15:47.157Z,96281.53
2023-11-27T23:18:48.989Z,96282.38
2023-11-27T23:21:52.492Z,96279.78
2023-11-27T23:24:54.241Z,96269.41
2023-11-27T23:27:55.850Z,96270.22
2023-11-27T23:30:57.631Z,96263.38
2023-11-27T23:33:59.458Z,96246.97
2023-11-27T23:37:01.098Z,96255.50
2023-11-27T23:40:02.801Z,96256.28
2023-11-27T23:43:04.567Z,96249.44
2023-11-27T23:46:07.294Z,96246.78
2023-11-27T23:49:09.209Z,96246.00
2023-11-27T23:52:10.942Z,96239.03
2023-11-27T23:55:12.590Z,96244.19
2023-11-27T23:58:14.333Z,96247.63
